createdAt,value
2019-03-23T00:00:35.129Z,95989.34
2019-03-23T00:03:01.130Z,95985.84
2019-03-23T00:05:27.222Z,95985.03
2019-03-23T00:07:53.256Z,95983.77
2019-03-23T00:10:19.257Z,95980.30
2019-03-23T00:12:45.254Z,95982.13
2019-03-23T00:15:11.254Z,95976.87
2019-03-23T00:17:37.253Z,95976.37
2019-03-23T00:20:03.256Z,95973.81
2019-03-23T00:22:29.251Z,95972.56
2019-03-23T00:24:55.255Z,95968.97
2019-03-23T00:27:21.251Z,95965.05
2019-03-23T00:29:47.268Z,95969.05
2019-03-23T00:32:13.269Z,95969.58
2019-03-23T00:34:39.266Z,95965.16
2019-03-23T00:37:05.264Z,95962.98
2019-03-23T00:39:31.264Z,95956.42
2019-03-23T00:41:57.259Z,95956.84
2019-03-23T00:44:23.255Z,95958.17
2019-03-23T00:46:49.258Z,95960.50
2019-03-23T00:49:15.252Z,95957.95
2019-03-23T00:51:41.251Z,95949.41
2019-03-23T00:54:07.243Z,95949.52
2019-03-23T00:56:33.259Z,95949.10
2019-03-23T00:58:59.254Z,95945.59
2019-03-23T01:01:25.253Z,95938.13
2019-03-23T01:03:51.255Z,95934.12
2019-03-23T01:06:17.246Z,95929.20
2019-03-23T01:08:43.244Z,95931.03
2019-03-23T01:11:09.235Z,95926.19
2019-03-23T01:13:35.234Z,95922.30
2019-03-23T01:16:01.235Z,95917.88
2019-03-23T01:18:27.258Z,95918.19
2019-03-23T01:20:53.256Z,95922.80
2019-03-23T01:23:19.251Z,95925.47
2019-03-23T01:25:45.254Z,95919.29
2019-03-23T01:28:11.253Z,95920.20
2019-03-23T01:30:37.267Z,95910.87
2019-03-23T01:33:03.266Z,95923.71
2019-03-23T01:35:29.267Z,95920.20
2019-03-23T01:37:55.266Z,95915.40
2019-03-23T01:40:21.264Z,95910.98
2019-03-23T01:42:47.263Z,95906.98
2019-03-23T01:45:13.260Z,95906.56
2019-03-23T01:47:39.270Z,95899.88
2019-03-23T01:50:05.268Z,95892.80
2019-03-23T01:52:31.291Z,95894.66
2019-03-23T01:54:57.284Z,95886.23
2019-03-23T01:57:23.279Z,95878.73
2019-03-23T01:59:49.286Z,95877.81
2019-03-23T02:02:15.284Z,95864.97
2019-03-23T02:04:41.289Z,95867.14
2019-03-23T02:07:13.646Z,95862.00
2019-03-23T02:09:33.291Z,95867.33
2019-03-23T02:11:59.289Z,95862.41
2019-03-23T02:14:25.307Z,95870.42
2019-03-23T02:16:51.299Z,95865.08
2019-03-23T02:19:17.294Z,95870.23
2019-03-23T02:21:43.294Z,95864.13
2019-03-23T02:24:09.286Z,95877.59
2019-03-23T02:26:35.295Z,95875.34
2019-03-23T02:29:01.286Z,95879.75
2019-03-23T02:31:27.284Z,95885.17
2019-03-23T02:33:53.283Z,95878.08
2019-03-23T02:36:19.280Z,95891.34
2019-03-23T02:38:45.272Z,95893.28
2019-03-23T02:41:11.297Z,95891.42
2019-03-23T02:43:37.294Z,95892.37
2019-03-23T02:46:03.294Z,95895.03
2019-03-23T02:48:29.294Z,95884.86
2019-03-23T02:50:55.286Z,95891.53
2019-03-23T02:53:21.288Z,95896.87
2019-03-23T02:55:47.280Z,95885.89
2019-03-23T02:58:13.287Z,95881.77
2019-03-23T03:00:39.283Z,95882.27
2019-03-23T03:03:05.275Z,95881.88
2019-03-23T03:05:31.275Z,95883.22
2019-03-23T03:07:57.284Z,95887.30
2019-03-23T03:10:23.304Z,95885.05
2019-03-23T03:12:49.311Z,95893.89
2019-03-23T03:15:15.303Z,95895.30
2019-03-23T03:17:41.320Z,95894.08
2019-03-23T03:20:07.305Z,95900.75
2019-03-23T03:22:33.302Z,95901.55
2019-03-23T03:24:59.300Z,95906.47
2019-03-23T03:27:25.309Z,95904.64
2019-03-23T03:29:51.297Z,95906.09
2019-03-23T03:32:17.333Z,95910.58
2019-03-23T03:34:43.312Z,95917.25
2019-03-23T03:37:09.304Z,95916.83
2019-03-23T03:39:35.302Z,95917.25
2019-03-23T03:42:01.312Z,95914.58
2019-03-23T03:44:27.303Z,95916.76
2019-03-23T03:46:53.302Z,95915.08
2019-03-23T03:49:19.324Z,95915.00
2019-03-23T03:51:45.318Z,95913.86
2019-03-23T03:54:11.334Z,95916.00
2019-03-23T03:56:37.335Z,95915.08
2019-03-23T03:59:03.332Z,95915.61
2019-03-23T04:01:29.335Z,95916.00
2019-03-23T04:03:55.335Z,95913.44
2019-03-23T04:06:21.355Z,95918.35
2019-03-23T04:08:47.338Z,95925.03
2019-03-23T04:11:13.357Z,95927.27
2019-03-23T04:13:39.355Z,95921.02
2019-03-23T04:16:05.351Z,95920.71
2019-03-23T04:18:31.349Z,95912.70
2019-03-23T04:20:57.343Z,95909.52
2019-03-23T04:23:23.346Z,95910.84
2019-03-23T04:25:49.354Z,95910.46
2019-03-23T04:28:15.356Z,95918.96
2019-03-23T04:30:41.343Z,95919.38
2019-03-23T04:33:07.334Z,95922.96
2019-03-23T04:35:33.343Z,95918.96
2019-03-23T04:37:59.339Z,95921.21
2019-03-23T04:40:25.366Z,95915.87
2019-03-23T04:42:51.366Z,95914.46
2019-03-23T04:45:17.371Z,95920.71
2019-03-23T04:47:43.377Z,95921.70
2019-03-23T04:50:09.372Z,95925.32
2019-03-23T04:52:35.370Z,95920.91
2019-03-23T04:55:01.371Z,95918.13
2019-03-23T04:57:27.371Z,95920.80
2019-03-23T04:59:53.367Z,95920.91
2019-03-23T05:02:19.396Z,95923.05
2019-03-23T05:04:45.420Z,95921.13
2019-03-23T05:07:11.416Z,95924.00
2019-03-23T05:09:37.417Z,95924.34
2019-03-23T05:12:03.408Z,95923.42
2019-03-23T05:14:29.414Z,95926.41
2019-03-23T05:16:55.411Z,95930.83
2019-03-23T05:19:21.428Z,95937.91
2019-03-23T05:21:47.419Z,95939.14
2019-03-23T05:24:13.416Z,95942.95
2019-03-23T05:26:39.558Z,95950.23
2019-03-23T05:29:05.550Z,95949.39
2019-03-23T05:31:31.661Z,95945.80
2019-03-23T05:33:57.655Z,95947.98
2019-03-23T05:36:23.664Z,95945.50
2019-03-23T05:38:49.657Z,95945.58
2019-03-23T05:41:15.651Z,95949.69
2019-03-23T05:43:41.650Z,95948.01
2019-03-23T05:46:07.683Z,95955.94
2019-03-23T05:48:33.674Z,95949.34
2019-03-23T05:50:59.679Z,95952.35
2019-03-23T05:53:25.787Z,95952.96
2019-03-23T05:55:51.716Z,95952.55
2019-03-23T05:58:17.729Z,95953.45
2019-03-23T06:00:43.725Z,95951.52
2019-03-23T06:03:09.752Z,95951.52
2019-03-23T06:05:35.751Z,95948.43
2019-03-23T06:08:01.746Z,95948.35
2019-03-23T06:10:27.750Z,95944.77
2019-03-23T06:12:53.758Z,95947.52
2019-03-23T06:15:19.774Z,95941.34
2019-03-23T06:17:45.776Z,95944.77
2019-03-23T06:20:11.888Z,95937.27
2019-03-23T06:22:37.902Z,95936.34
2019-03-23T06:25:03.901Z,95933.08
2019-03-23T06:27:29.903Z,95931.86
2019-03-23T06:29:55.901Z,95926.52
2019-03-23T06:32:21.904Z,95927.36
2019-03-23T06:34:47.906Z,95911.43
2019-03-23T06:37:13.907Z,95916.58
2019-03-23T06:39:39.903Z,95905.71
2019-03-23T06:42:05.911Z,95909.52
2019-03-23T06:44:31.937Z,95916.92
2019-03-23T06:46:57.932Z,95918.67
2019-03-23T06:49:24.041Z,95916.00
2019-03-23T06:51:50.053Z,95916.81
2019-03-23T06:54:16.046Z,95926.56
2019-03-23T06:56:42.046Z,95927.90
2019-03-23T06:59:08.064Z,95926.14
2019-03-23T07:01:34.068Z,95931.91
2019-03-23T07:04:00.091Z,95933.23
2019-03-23T07:06:26.091Z,95927.25
2019-03-23T07:08:52.088Z,95922.67
2019-03-23T07:11:18.099Z,95916.92
2019-03-23T07:13:44.140Z,95918.06
2019-03-23T07:16:10.138Z,95914.30
2019-03-23T07:18:36.137Z,95909.69
2019-03-23T07:21:02.143Z,95910.67
2019-03-23T07:23:28.142Z,95907.63
2019-03-23T07:25:54.168Z,95910.60
2019-03-23T07:28:20.164Z,95911.52
2019-03-23T07:30:46.155Z,95914.61
2019-03-23T07:33:12.158Z,95915.52
2019-03-23T07:35:38.193Z,95908.35
2019-03-23T07:38:04.209Z,95907.93
2019-03-23T07:40:30.207Z,95902.59
2019-03-23T07:42:56.224Z,95903.85
2019-03-23T07:45:22.203Z,95904.34
2019-03-23T07:47:48.217Z,95902.29
2019-03-23T07:50:14.221Z,95892.84
2019-03-23T07:52:40.216Z,95887.27
2019-03-23T07:55:06.259Z,95888.61
2019-03-23T07:57:32.272Z,95887.27
2019-03-23T07:59:58.270Z,95884.61
2019-03-23T08:02:24.267Z,95886.66
2019-03-23T08:04:50.304Z,95886.36
2019-03-23T08:07:16.306Z,95881.94
2019-03-23T08:09:42.330Z,95883.61
2019-03-23T08:12:08.322Z,95877.94
2019-03-23T08:14:36.153Z,95882.66
2019-03-23T08:17:00.323Z,95873.17
2019-03-23T08:19:26.314Z,95870.99
2019-03-23T08:21:52.319Z,95872.64
2019-03-23T08:24:18.315Z,95868.97
2019-03-23T08:26:44.339Z,95863.26
2019-03-23T08:29:10.338Z,95864.48
2019-03-23T08:31:36.338Z,95858.00
2019-03-23T08:34:02.334Z,95854.72
2019-03-23T08:36:28.332Z,95848.78
2019-03-23T08:38:54.332Z,95850.95
2019-03-23T08:41:20.331Z,95845.53
2019-03-23T08:43:46.353Z,95843.44
2019-03-23T08:46:12.343Z,95843.25
2019-03-23T08:48:38.348Z,95841.42
2019-03-23T08:51:04.343Z,95836.39
2019-03-23T08:53:30.399Z,95832.08
2019-03-23T08:55:56.351Z,95829.22
2019-03-23T08:58:22.341Z,95821.89
2019-03-23T09:00:48.400Z,95824.75
2019-03-23T09:03:14.391Z,95825.06
2019-03-23T09:05:40.393Z,95818.47
2019-03-23T09:08:06.390Z,95815.41
2019-03-23T09:10:32.395Z,95811.06
2019-03-23T09:12:58.408Z,95810.99
2019-03-23T09:15:24.404Z,95806.98
2019-03-23T09:17:50.406Z,95810.38
2019-03-23T09:20:16.412Z,95806.38
2019-03-23T09:22:42.417Z,95808.63
2019-03-23T09:25:08.421Z,95805.88
2019-03-23T09:27:34.461Z,95804.44
2019-03-23T09:30:00.463Z,95803.02
2019-03-23T09:32:26.462Z,95807.52
2019-03-23T09:34:52.463Z,95795.81
2019-03-23T09:37:18.508Z,95789.81
2019-03-23T09:39:44.514Z,95791.99
2019-03-23T09:42:10.516Z,95785.20
2019-03-23T09:44:36.514Z,95779.06
2019-03-23T09:47:03.094Z,95784.90
2019-03-23T09:49:29.115Z,95773.38
2019-03-23T09:51:55.110Z,95770.72
2019-03-23T09:54:21.135Z,95764.05
2019-03-23T09:56:47.143Z,95767.71
2019-03-23T09:59:13.141Z,95769.05
2019-03-23T10:01:39.150Z,95769.38
2019-03-23T10:04:05.148Z,95764.05
2019-03-23T10:06:31.147Z,95765.38
2019-03-23T10:08:57.144Z,95765.88
2019-03-23T10:11:23.142Z,95759.70
2019-03-23T10:13:49.174Z,95757.03
2019-03-23T10:16:15.164Z,95762.79
2019-03-23T10:18:41.164Z,95764.05
2019-03-23T10:21:07.166Z,95756.03
2019-03-23T10:23:33.232Z,95755.84
2019-03-23T10:25:59.232Z,95750.62
2019-03-23T10:28:25.226Z,95748.37
2019-03-23T10:30:51.260Z,95750.42
2019-03-23T10:33:17.251Z,95743.53
2019-03-23T10:35:43.250Z,95742.92
2019-03-23T10:38:09.249Z,95741.28
2019-03-23T10:40:35.256Z,95739.33
2019-03-23T10:43:01.254Z,95733.69
2019-03-23T10:45:27.272Z,95731.63
2019-03-23T10:47:53.323Z,95728.05
2019-03-23T10:50:19.280Z,95723.40
2019-03-23T10:52:45.302Z,95719.81
2019-03-23T10:55:11.299Z,95709.36
2019-03-23T10:57:37.302Z,95710.61
2019-03-23T11:00:03.305Z,95699.88
2019-03-23T11:02:29.358Z,95696.06
2019-03-23T11:04:55.355Z,95699.34
2019-03-23T11:07:21.360Z,95694.54
2019-03-23T11:09:47.350Z,95690.31
2019-03-23T11:12:13.355Z,95681.49
2019-03-23T11:14:39.349Z,95678.41
2019-03-23T11:17:05.367Z,95672.66
2019-03-23T11:19:31.367Z,95673.98
2019-03-23T11:21:57.359Z,95672.37
2019-03-23T11:24:23.354Z,95670.20
2019-03-23T11:26:49.348Z,95664.86
2019-03-23T11:29:15.354Z,95662.83
2019-03-23T11:31:41.540Z,95659.47
2019-03-23T11:34:17.249Z,95652.38
2019-03-23T11:36:33.538Z,95653.12
2019-03-23T11:38:59.555Z,95655.17
2019-03-23T11:41:25.555Z,95646.25
2019-03-23T11:43:51.593Z,95645.33
2019-03-23T11:46:17.562Z,95641.13
2019-03-23T11:48:43.559Z,95632.59
2019-03-23T11:51:09.563Z,95632.59
2019-03-23T11:53:35.569Z,95626.24
2019-03-23T11:56:01.569Z,95629.33
2019-03-23T11:58:27.571Z,95626.55
2019-03-23T12:00:53.568Z,95618.84
2019-03-23T12:03:19.571Z,95609.49
2019-03-23T12:05:45.567Z,95606.94
2019-03-23T12:08:11.576Z,95600.14
2019-03-23T12:10:37.568Z,95594.50
2019-03-23T12:13:03.577Z,95583.84
2019-03-23T12:15:29.894Z,95587.43
2019-03-23T12:17:55.628Z,95587.84
2019-03-23T12:20:21.626Z,95574.30
2019-03-23T12:22:47.624Z,95576.55
2019-03-23T12:25:13.625Z,95572.13
2019-03-23T12:27:39.628Z,95575.02
2019-03-23T12:30:07.553Z,95569.80
2019-03-23T12:32:31.649Z,95571.51
2019-03-23T12:34:57.650Z,95565.87
2019-03-23T12:37:23.644Z,95567.84
2019-03-23T12:39:49.643Z,95562.50
2019-03-23T12:42:15.688Z,95570.17
2019-03-23T12:44:41.686Z,95569.47
2019-03-23T12:47:07.676Z,95561.05
2019-03-23T12:49:33.701Z,95563.10
2019-03-23T12:51:59.702Z,95553.67
2019-03-23T12:54:25.709Z,95546.58
2019-03-23T12:56:51.708Z,95551.63
2019-03-23T12:59:17.702Z,95543.42
2019-03-23T13:01:43.745Z,95538.50
2019-03-23T13:04:09.745Z,95540.34
2019-03-23T13:06:35.739Z,95529.87
2019-03-23T13:09:01.743Z,95529.75
2019-03-23T13:11:34.835Z,95523.06
2019-03-23T13:13:53.763Z,95519.17
2019-03-23T13:16:19.761Z,95527.50
2019-03-23T13:18:45.758Z,95519.91
2019-03-23T13:21:11.756Z,95511.47
2019-03-23T13:23:37.752Z,95504.27
2019-03-23T13:26:03.758Z,95503.14
2019-03-23T13:28:29.783Z,95500.70
2019-03-23T13:30:55.785Z,95497.83
2019-03-23T13:33:21.788Z,95491.45
2019-03-23T13:35:47.784Z,95496.09
2019-03-23T13:38:13.786Z,95497.00
2019-03-23T13:40:39.784Z,95487.13
2019-03-23T13:43:05.810Z,95488.37
2019-03-23T13:45:31.815Z,95483.66
2019-03-23T13:47:57.834Z,95480.98
2019-03-23T13:50:23.840Z,95483.53
2019-03-23T13:52:49.837Z,95479.34
2019-03-23T13:55:15.839Z,95483.74
2019-03-23T13:57:41.840Z,95480.56
2019-03-23T14:00:07.860Z,95478.41
2019-03-23T14:02:33.855Z,95477.89
2019-03-23T14:04:59.878Z,95472.14
2019-03-23T14:07:25.916Z,95468.05
2019-03-23T14:09:51.913Z,95468.33
2019-03-23T14:12:17.918Z,95474.31
2019-03-23T14:14:44.062Z,95468.35
2019-03-23T14:17:10.066Z,95465.69
2019-03-23T14:19:36.063Z,95462.80
2019-03-23T14:22:02.078Z,95463.72
2019-03-23T14:24:28.076Z,95462.38
2019-03-23T14:26:54.100Z,95467.22
2019-03-23T14:29:20.090Z,95464.14
2019-03-23T14:31:46.133Z,95463.11
2019-03-23T14:34:12.134Z,95463.11
2019-03-23T14:36:38.136Z,95468.03
2019-03-23T14:39:04.140Z,95458.47
2019-03-23T14:41:30.137Z,95465.27
2019-03-23T14:43:56.872Z,95461.34
2019-03-23T14:46:23.611Z,95465.69
2019-03-23T14:48:49.606Z,95456.55
2019-03-23T14:51:15.812Z,95461.88
2019-03-23T14:53:41.807Z,95455.11
2019-03-23T14:56:08.121Z,95451.52
2019-03-23T14:58:34.125Z,95450.19
2019-03-23T15:01:00.124Z,95452.03
2019-03-23T15:03:26.134Z,95453.27
2019-03-23T15:05:52.159Z,95454.48
2019-03-23T15:08:18.205Z,95450.48
2019-03-23T15:10:44.199Z,95454.58
2019-03-23T15:13:10.208Z,95448.23
2019-03-23T15:15:36.206Z,95449.06
2019-03-23T15:18:02.233Z,95456.66
2019-03-23T15:20:28.231Z,95453.27
2019-03-23T15:22:54.574Z,95455.63
2019-03-23T15:25:20.574Z,95454.59
2019-03-23T15:27:46.604Z,95454.50
2019-03-23T15:30:12.674Z,95454.80
2019-03-23T15:32:38.678Z,95459.02
2019-03-23T15:35:04.680Z,95458.10
2019-03-23T15:37:30.747Z,95456.23
2019-03-23T15:39:56.782Z,95457.56
2019-03-23T15:42:24.947Z,95458.30
2019-03-23T15:44:48.809Z,95454.84
2019-03-23T15:47:14.854Z,95471.68
2019-03-23T15:49:40.851Z,95464.08
2019-03-23T15:52:06.878Z,95468.00
2019-03-23T15:54:32.874Z,95479.11
2019-03-23T15:56:58.875Z,95467.67
2019-03-23T15:59:24.872Z,95474.89
2019-03-23T16:01:50.963Z,95472.42
2019-03-23T16:04:16.964Z,95482.98
2019-03-23T16:06:43.001Z,95475.71
2019-03-23T16:09:08.970Z,95476.02
2019-03-23T16:11:35.042Z,95479.60
2019-03-23T16:14:01.156Z,95477.09
2019-03-23T16:16:27.157Z,95473.63
2019-03-23T16:18:53.160Z,95478.02
2019-03-23T16:21:19.158Z,95479.55
2019-03-23T16:23:45.159Z,95476.58
2019-03-23T16:26:11.160Z,95485.33
2019-03-23T16:28:37.156Z,95486.66
2019-03-23T16:31:03.160Z,95480.08
2019-03-23T16:33:29.169Z,95491.67
2019-03-23T16:35:55.178Z,95495.46
2019-03-23T16:38:21.182Z,95502.25
2019-03-23T16:40:47.218Z,95500.50
2019-03-23T16:43:13.227Z,95493.11
2019-03-23T16:45:39.232Z,95486.31
2019-03-23T16:48:05.299Z,95492.48
2019-03-23T16:50:31.297Z,95491.27
2019-03-23T16:52:57.286Z,95490.86
2019-03-23T16:55:23.306Z,95494.03
2019-03-23T16:57:49.307Z,95493.81
2019-03-23T17:00:15.305Z,95490.75
2019-03-23T17:02:41.311Z,95496.69
2019-03-23T17:05:07.308Z,95496.69
2019-03-23T17:07:33.310Z,95500.70
2019-03-23T17:09:59.514Z,95497.01
2019-03-23T17:12:27.072Z,95504.70
2019-03-23T17:14:53.077Z,95506.88
2019-03-23T17:17:19.083Z,95505.03
2019-03-23T17:19:45.572Z,95510.77
2019-03-23T17:22:11.594Z,95516.10
2019-03-23T17:24:37.606Z,95521.14
2019-03-23T17:27:03.620Z,95524.02
2019-03-23T17:29:29.625Z,95524.02
2019-03-23T17:31:55.622Z,95524.02
2019-03-23T17:34:21.631Z,95526.69
2019-03-23T17:36:47.630Z,95522.06
2019-03-23T17:39:13.626Z,95529.27
2019-03-23T17:41:39.623Z,95536.25
2019-03-23T17:44:05.648Z,95532.45
2019-03-23T17:46:31.646Z,95533.87
2019-03-23T17:48:57.639Z,95538.41
2019-03-23T17:51:23.640Z,95542.20
2019-03-23T17:53:58.269Z,95537.36
2019-03-23T17:56:15.637Z,95544.16
2019-03-23T17:58:41.641Z,95542.48
2019-03-23T18:01:07.666Z,95551.83
2019-03-23T18:03:33.659Z,95550.11
2019-03-23T18:05:59.656Z,95552.78
2019-03-23T18:08:25.665Z,95551.03
2019-03-23T18:10:51.668Z,95552.78
2019-03-23T18:13:17.671Z,95551.83
2019-03-23T18:15:43.664Z,95551.02
2019-03-23T18:18:09.666Z,95554.91
2019-03-23T18:20:35.666Z,95557.58
2019-03-23T18:23:01.684Z,95559.94
2019-03-23T18:25:27.685Z,95555.22
2019-03-23T18:27:53.680Z,95556.22
2019-03-23T18:30:19.678Z,95561.68
2019-03-23T18:32:45.671Z,95559.84
2019-03-23T18:35:11.671Z,95557.67
2019-03-23T18:37:37.671Z,95555.42
2019-03-23T18:40:03.715Z,95558.81
2019-03-23T18:42:29.730Z,95557.19
2019-03-23T18:44:55.722Z,95564.47
2019-03-23T18:47:21.724Z,95571.98
2019-03-23T18:49:47.743Z,95570.34
2019-03-23T18:52:13.735Z,95568.45
2019-03-23T18:54:39.798Z,95568.67
2019-03-23T18:57:05.804Z,95571.34
2019-03-23T18:59:31.805Z,95562.81
2019-03-23T19:01:57.805Z,95569.08
2019-03-23T19:04:23.798Z,95560.77
2019-03-23T19:06:49.933Z,95559.92
2019-03-23T19:09:16.445Z,95561.77
2019-03-23T19:11:42.438Z,95560.62
2019-03-23T19:14:08.448Z,95567.64
2019-03-23T19:16:34.449Z,95564.75
2019-03-23T19:19:00.483Z,95567.02
2019-03-23T19:21:26.478Z,95572.78
2019-03-23T19:23:52.472Z,95571.95
2019-03-23T19:26:18.470Z,95578.32
2019-03-23T19:28:44.463Z,95580.08
2019-03-23T19:31:10.465Z,95578.61
2019-03-23T19:33:36.464Z,95584.86
2019-03-23T19:36:02.489Z,95588.15
2019-03-23T19:38:28.483Z,95585.06
2019-03-23T19:40:54.492Z,95589.19
2019-03-23T19:43:20.495Z,95591.94
2019-03-23T19:45:47.441Z,95599.95
2019-03-23T19:48:13.424Z,95600.06
2019-03-23T19:50:39.420Z,95602.81
2019-03-23T19:53:05.425Z,95602.44
2019-03-23T19:55:31.420Z,95606.10
2019-03-23T19:57:58.269Z,95602.94
2019-03-23T20:00:24.265Z,95602.09
2019-03-23T20:02:50.338Z,95602.44
2019-03-23T20:05:16.292Z,95597.67
2019-03-23T20:07:42.410Z,95598.51
2019-03-23T20:10:10.487Z,95600.34
2019-03-23T20:12:36.525Z,95595.01
2019-03-23T20:17:41.347Z,95597.80
2019-03-23T20:20:09.105Z,95600.96
2019-03-23T20:22:35.098Z,95604.05
2019-03-23T20:25:01.100Z,95607.55
2019-03-23T20:27:27.100Z,95602.83
2019-03-23T20:29:53.115Z,95604.55
2019-03-23T20:32:19.118Z,95601.49
2019-03-23T20:34:45.120Z,95604.16
2019-03-23T20:37:11.134Z,95606.00
2019-03-23T20:39:37.134Z,95606.84
2019-03-23T20:42:03.137Z,95609.70
2019-03-23T20:44:29.132Z,95609.17
2019-03-23T20:46:55.153Z,95605.16
2019-03-23T20:49:21.147Z,95613.89
2019-03-23T20:51:47.142Z,95613.89
2019-03-23T20:54:13.776Z,95616.56
2019-03-23T20:56:39.132Z,95615.34
2019-03-23T20:59:05.140Z,95618.09
2019-03-23T21:01:31.136Z,95617.30
2019-03-23T21:03:57.132Z,95616.27
2019-03-23T21:06:23.130Z,95611.95
2019-03-23T21:08:49.119Z,95614.62
2019-03-23T21:11:15.125Z,95617.91
2019-03-23T21:13:41.121Z,95624.89
2019-03-23T21:16:07.129Z,95622.22
2019-03-23T21:18:33.123Z,95619.13
2019-03-23T21:20:59.151Z,95623.63
2019-03-23T21:23:25.148Z,95620.16
2019-03-23T21:25:51.142Z,95623.33
2019-03-23T21:28:17.143Z,95628.59
2019-03-23T21:30:43.135Z,95619.74
2019-03-23T21:33:09.138Z,95627.64
2019-03-23T21:35:36.367Z,95621.50
2019-03-23T21:38:02.350Z,95620.66
2019-03-23T21:40:28.350Z,95621.16
2019-03-23T21:42:54.434Z,95622.00
2019-03-23T21:45:20.432Z,95619.44
2019-03-23T21:47:46.441Z,95624.78
2019-03-23T21:50:12.428Z,95627.84
2019-03-23T21:52:38.418Z,95623.61
2019-03-23T21:55:04.421Z,95632.23
2019-03-23T21:57:30.414Z,95633.16
2019-03-23T21:59:56.423Z,95625.14
2019-03-23T22:02:22.411Z,95623.01
2019-03-23T22:04:48.412Z,95629.34
2019-03-23T22:07:14.420Z,95629.77
2019-03-23T22:09:40.424Z,95636.14
2019-03-23T22:12:06.426Z,95636.22
2019-03-23T22:14:41.385Z,95643.73
2019-03-23T22:16:58.419Z,95648.77
2019-03-23T22:19:24.507Z,95659.44
2019-03-23T22:21:50.508Z,95661.69
2019-03-23T22:24:16.506Z,95668.38
2019-03-23T22:26:42.508Z,95664.78
2019-03-23T22:29:08.508Z,95675.55
2019-03-23T22:31:34.504Z,95676.58
2019-03-23T22:34:00.504Z,95684.58
2019-03-23T22:36:26.498Z,95689.08
2019-03-23T22:38:52.522Z,95685.61
2019-03-23T22:41:18.553Z,95683.45
2019-03-23T22:43:44.516Z,95677.27
2019-03-23T22:46:10.518Z,95683.14
2019-03-23T22:48:36.514Z,95688.98
2019-03-23T22:51:02.511Z,95686.39
2019-03-23T22:53:28.505Z,95696.56
2019-03-23T22:55:54.644Z,95695.73
2019-03-23T22:58:20.640Z,95699.44
2019-03-23T23:00:46.643Z,95700.27
2019-03-23T23:03:12.651Z,95698.09
2019-03-23T23:05:38.641Z,95702.22
2019-03-23T23:08:04.642Z,95700.96
2019-03-23T23:10:30.635Z,95708.13
2019-03-23T23:12:56.639Z,95704.97
2019-03-23T23:15:22.629Z,95709.08
2019-03-23T23:17:48.627Z,95711.84
2019-03-23T23:20:14.627Z,95713.67
2019-03-23T23:22:40.628Z,95708.75
2019-03-23T23:25:06.623Z,95711.95
2019-03-23T23:27:32.645Z,95702.69
2019-03-23T23:29:58.639Z,95707.52
2019-03-23T23:32:24.696Z,95702.69
2019-03-23T23:34:50.693Z,95698.80
2019-03-23T23:37:16.697Z,95704.94
2019-03-23T23:39:42.690Z,95696.63
2019-03-23T23:42:08.687Z,95698.38
2019-03-23T23:44:36.880Z,95686.87
2019-03-23T23:47:00.692Z,95690.45
2019-03-23T23:49:26.711Z,95685.53
2019-03-23T23:51:52.703Z,95681.11
2019-03-23T23:54:18.697Z,95680.70
2019-03-23T23:56:44.754Z,95679.05
2019-03-23T23:59:10.691Z,95678.22
